sensor_id;sensor_type;location;lat;lon;timestamp;pressure;altitude;pressure_sealevel;temperature;humidity
41515;BME280;27247;48.020;16.720;2022-09-28T00:01:44;98582.69;;;9.01;89.52
41515;BME280;27247;48.020;16.720;2022-09-28T00:06:00;98589.34;;;9.18;89.32
41515;BME280;27247;48.020;16.720;2022-09-28T00:10:11;98568.59;;;9.14;89.88
41515;BME280;27247;48.020;16.720;2022-09-28T00:14:22;98570.31;;;9.28;89.68
41515;BME280;27247;48.020;16.720;2022-09-28T00:18:33;98572.44;;;9.39;90.32
41515;BME280;27247;48.020;16.720;2022-09-28T00:22:45;98578.34;;;9.35;90.57
41515;BME280;27247;48.020;16.720;2022-09-28T00:26:57;98562.72;;;9.25;90.75
41515;BME280;27247;48.020;16.720;2022-09-28T00:31:09;98560.00;;;9.18;90.55
41515;BME280;27247;48.020;16.720;2022-09-28T00:35:20;98559.19;;;9.18;90.61
41515;BME280;27247;48.020;16.720;2022-09-28T00:39:30;98549.91;;;9.07;91.26
41515;BME280;27247;48.020;16.720;2022-09-28T00:43:40;98548.00;;;8.94;91.21
41515;BME280;27247;48.020;16.720;2022-09-28T00:47:55;98545.94;;;8.90;91.80
41515;BME280;27247;48.020;16.720;2022-09-28T00:52:09;98538.13;;;8.88;91.69
41515;BME280;27247;48.020;16.720;2022-09-28T00:56:23;98543.81;;;9.20;89.28
41515;BME280;27247;48.020;16.720;2022-09-28T01:00:37;98551.72;;;9.41;87.87
41515;BME280;27247;48.020;16.720;2022-09-28T01:04:50;98549.09;;;9.48;87.28
41515;BME280;27247;48.020;16.720;2022-09-28T01:09:03;98553.19;;;9.50;86.62
41515;BME280;27247;48.020;16.720;2022-09-28T01:13:16;98556.94;;;9.63;86.73
41515;BME280;27247;48.020;16.720;2022-09-28T01:27:05;98545.78;;;9.39;87.42
41515;BME280;27247;48.020;16.720;2022-09-28T01:31:20;98544.34;;;9.43;86.85
41515;BME280;27247;48.020;16.720;2022-09-28T01:35:39;98534.66;;;9.36;85.91
41515;BME280;27247;48.020;16.720;2022-09-28T01:39:53;98536.28;;;9.30;85.88
41515;BME280;27247;48.020;16.720;2022-09-28T01:44:07;98557.81;;;8.87;89.14
41515;BME280;27247;48.020;16.720;2022-09-28T01:48:30;98563.00;;;8.40;91.12
41515;BME280;27247;48.020;16.720;2022-09-28T01:52:58;98566.69;;;8.39;91.49
41515;BME280;27247;48.020;16.720;2022-09-28T01:57:33;98560.34;;;8.40;91.28
41515;BME280;27247;48.020;16.720;2022-09-28T02:01:51;98564.41;;;8.36;91.43
41515;BME280;27247;48.020;16.720;2022-09-28T02:06:12;98566.13;;;8.43;90.85
41515;BME280;27247;48.020;16.720;2022-09-28T02:10:32;98560.00;;;8.49;90.31
41515;BME280;27247;48.020;16.720;2022-09-28T02:14:44;98568.06;;;8.56;90.13
41515;BME280;27247;48.020;16.720;2022-09-28T02:18:57;98559.88;;;8.57;89.69
41515;BME280;27247;48.020;16.720;2022-09-28T02:23:08;98577.72;;;8.63;89.11
41515;BME280;27247;48.020;16.720;2022-09-28T02:27:49;98573.63;;;8.61;88.45
41515;BME280;27247;48.020;16.720;2022-09-28T02:32:02;98570.28;;;8.52;89.26
41515;BME280;27247;48.020;16.720;2022-09-28T02:36:13;98563.84;;;8.40;89.41
41515;BME280;27247;48.020;16.720;2022-09-28T02:40:28;98566.66;;;8.17;90.38
41515;BME280;27247;48.020;16.720;2022-09-28T02:44:49;98582.31;;;7.84;91.76
41515;BME280;27247;48.020;16.720;2022-09-28T03:03:17;98574.44;;;7.55;95.14
41515;BME280;27247;48.020;16.720;2022-09-28T03:07:44;98558.63;;;7.68;93.54
41515;BME280;27247;48.020;16.720;2022-09-28T03:11:57;98545.31;;;7.68;94.27
41515;BME280;27247;48.020;16.720;2022-09-28T03:16:15;98543.16;;;7.57;94.97
41515;BME280;27247;48.020;16.720;2022-09-28T03:20:27;98546.41;;;7.38;95.42
41515;BME280;27247;48.020;16.720;2022-09-28T03:24:38;98532.44;;;7.14;96.56
41515;BME280;27247;48.020;16.720;2022-09-28T03:28:48;98533.19;;;6.93;97.71
41515;BME280;27247;48.020;16.720;2022-09-28T03:32:59;98554.06;;;6.67;100.00
41515;BME280;27247;48.020;16.720;2022-09-28T03:37:09;98550.94;;;6.93;99.38
41515;BME280;27247;48.020;16.720;2022-09-28T03:41:19;98550.13;;;7.07;98.06
41515;BME280;27247;48.020;16.720;2022-09-28T03:45:30;98535.00;;;6.93;97.77
41515;BME280;27247;48.020;16.720;2022-09-28T03:49:41;98538.41;;;7.01;98.11
41515;BME280;27247;48.020;16.720;2022-09-28T03:53:51;98546.81;;;6.90;98.77
41515;BME280;27247;48.020;16.720;2022-09-28T03:58:01;98545.09;;;6.83;97.58
41515;BME280;27247;48.020;16.720;2022-09-28T04:02:11;98551.78;;;6.64;96.78
41515;BME280;27247;48.020;16.720;2022-09-28T04:06:23;98541.06;;;6.57;98.24
41515;BME280;27247;48.020;16.720;2022-09-28T04:10:33;98552.31;;;6.59;98.30
41515;BME280;27247;48.020;16.720;2022-09-28T04:14:43;98539.50;;;6.63;98.24
41515;BME280;27247;48.020;16.720;2022-09-28T04:18:56;98532.09;;;6.73;97.55
41515;BME280;27247;48.020;16.720;2022-09-28T04:23:07;98527.06;;;6.78;96.88
41515;BME280;27247;48.020;16.720;2022-09-28T04:27:17;98519.81;;;6.72;96.94
41515;BME280;27247;48.020;16.720;2022-09-28T04:31:48;98523.56;;;6.63;98.06
41515;BME280;27247;48.020;16.720;2022-09-28T04:35:59;98508.28;;;6.50;98.81
41515;BME280;27247;48.020;16.720;2022-09-28T04:40:10;98523.31;;;6.58;98.61
41515;BME280;27247;48.020;16.720;2022-09-28T04:44:20;98525.13;;;6.57;97.83
41515;BME280;27247;48.020;16.720;2022-09-28T04:48:31;98512.97;;;6.48;97.32
41515;BME280;27247;48.020;16.720;2022-09-28T04:52:41;98507.91;;;6.38;97.49
41515;BME280;27247;48.020;16.720;2022-09-28T04:56:52;98497.41;;;6.30;97.38
41515;BME280;27247;48.020;16.720;2022-09-28T05:01:14;98491.91;;;6.32;97.60
41515;BME280;27247;48.020;16.720;2022-09-28T05:05:25;98503.16;;;6.34;97.89
41515;BME280;27247;48.020;16.720;2022-09-28T05:09:36;98517.63;;;6.46;97.44
41515;BME280;27247;48.020;16.720;2022-09-28T05:13:46;98508.66;;;6.47;96.11
41515;BME280;27247;48.020;16.720;2022-09-28T05:17:57;98512.22;;;6.39;97.19
41515;BME280;27247;48.020;16.720;2022-09-28T05:22:07;98511.13;;;6.49;96.67
41515;BME280;27247;48.020;16.720;2022-09-28T05:26:23;98507.19;;;6.45;98.27
41515;BME280;27247;48.020;16.720;2022-09-28T05:30:34;98494.38;;;6.63;98.32
41515;BME280;27247;48.020;16.720;2022-09-28T05:34:45;98485.22;;;6.51;98.84
41515;BME280;27247;48.020;16.720;2022-09-28T05:38:55;98471.06;;;6.58;100.00
41515;BME280;27247;48.020;16.720;2022-09-28T05:43:06;98463.53;;;6.62;100.00
41515;BME280;27247;48.020;16.720;2022-09-28T05:47:16;98454.84;;;6.68;100.00
41515;BME280;27247;48.020;16.720;2022-09-28T05:51:26;98445.31;;;6.73;100.00
41515;BME280;27247;48.020;16.720;2022-09-28T05:55:37;98432.38;;;6.85;100.00
41515;BME280;27247;48.020;16.720;2022-09-28T05:59:49;98433.81;;;7.02;100.00
41515;BME280;27247;48.020;16.720;2022-09-28T06:03:59;98439.72;;;7.19;100.00
41515;BME280;27247;48.020;16.720;2022-09-28T06:08:09;98455.63;;;7.34;100.00
41515;BME280;27247;48.020;16.720;2022-09-28T06:12:20;98452.78;;;7.35;100.00
41515;BME280;27247;48.020;16.720;2022-09-28T06:16:31;98450.19;;;7.42;100.00
41515;BME280;27247;48.020;16.720;2022-09-28T06:20:41;98442.28;;;7.49;100.00
41515;BME280;27247;48.020;16.720;2022-09-28T06:24:52;98445.44;;;7.59;100.00
41515;BME280;27247;48.020;16.720;2022-09-28T06:29:02;98439.69;;;7.55;100.00
41515;BME280;27247;48.020;16.720;2022-09-28T06:33:13;98430.34;;;7.23;100.00
41515;BME280;27247;48.020;16.720;2022-09-28T06:37:24;98434.63;;;7.03;100.00
41515;BME280;27247;48.020;16.720;2022-09-28T06:41:35;98439.25;;;6.80;100.00
41515;BME280;27247;48.020;16.720;2022-09-28T06:45:50;98444.50;;;6.73;100.00
41515;BME280;27247;48.020;16.720;2022-09-28T06:50:01;98438.34;;;6.72;100.00
41515;BME280;27247;48.020;16.720;2022-09-28T06:54:11;98450.00;;;6.57;100.00
41515;BME280;27247;48.020;16.720;2022-09-28T06:58:22;98437.63;;;6.64;100.00
41515;BME280;27247;48.020;16.720;2022-09-28T07:02:32;98432.28;;;6.93;100.00
41515;BME280;27247;48.020;16.720;2022-09-28T07:06:46;98428.63;;;7.16;100.00
41515;BME280;27247;48.020;16.720;2022-09-28T07:10:57;98419.88;;;7.36;100.00
41515;BME280;27247;48.020;16.720;2022-09-28T07:15:07;98418.28;;;7.63;100.00
41515;BME280;27247;48.020;16.720;2022-09-28T07:19:18;98415.19;;;7.88;100.00
41515;BME280;27247;48.020;16.720;2022-09-28T07:23:28;98413.50;;;8.08;100.00
41515;BME280;27247;48.020;16.720;2022-09-28T07:27:39;98395.34;;;8.18;100.00
41515;BME280;27247;48.020;16.720;2022-09-28T07:31:52;98379.34;;;8.40;100.00
41515;BME280;27247;48.020;16.720;2022-09-28T07:36:02;98388.84;;;8.55;100.00
41515;BME280;27247;48.020;16.720;2022-09-28T07:40:15;98389.47;;;8.57;100.00
41515;BME280;27247;48.020;16.720;2022-09-28T07:44:44;98390.56;;;8.76;100.00
41515;BME280;27247;48.020;16.720;2022-09-28T07:48:56;98386.25;;;8.75;100.00
41515;BME280;27247;48.020;16.720;2022-09-28T07:53:07;98388.19;;;9.01;100.00
41515;BME280;27247;48.020;16.720;2022-09-28T07:57:18;98388.22;;;9.14;100.00
41515;BME280;27247;48.020;16.720;2022-09-28T08:01:29;98389.03;;;9.21;100.00
41515;BME280;27247;48.020;16.720;2022-09-28T08:05:40;98374.25;;;9.06;100.00
41515;BME280;27247;48.020;16.720;2022-09-28T08:09:51;98371.19;;;9.09;100.00
41515;BME280;27247;48.020;16.720;2022-09-28T08:14:02;98359.94;;;9.20;100.00
41515;BME280;27247;48.020;16.720;2022-09-28T08:18:12;98358.53;;;9.37;100.00
41515;BME280;27247;48.020;16.720;2022-09-28T08:22:23;98342.53;;;9.70;100.00
41515;BME280;27247;48.020;16.720;2022-09-28T08:26:33;98332.63;;;10.04;100.00
41515;BME280;27247;48.020;16.720;2022-09-28T08:30:44;98318.38;;;10.36;100.00
41515;BME280;27247;48.020;16.720;2022-09-28T08:34:55;98313.63;;;10.90;100.00
41515;BME280;27247;48.020;16.720;2022-09-28T08:39:05;98308.75;;;11.36;100.00
41515;BME280;27247;48.020;16.720;2022-09-28T08:43:46;98304.53;;;11.78;100.00
41515;BME280;27247;48.020;16.720;2022-09-28T08:48:16;98294.78;;;12.39;100.00
41515;BME280;27247;48.020;16.720;2022-09-28T08:52:51;98291.88;;;12.59;100.00
41515;BME280;27247;48.020;16.720;2022-09-28T08:57:18;98276.84;;;12.88;97.85
41515;BME280;27247;48.020;16.720;2022-09-28T09:01:37;98269.16;;;13.45;96.10
41515;BME280;27247;48.020;16.720;2022-09-28T09:05:53;98264.53;;;13.63;93.04
41515;BME280;27247;48.020;16.720;2022-09-28T09:19:15;98250.97;;;13.70;90.43
41515;BME280;27247;48.020;16.720;2022-09-28T09:23:39;98232.38;;;13.92;91.19
41515;BME280;27247;48.020;16.720;2022-09-28T09:32:50;98219.00;;;14.20;88.84
41515;BME280;27247;48.020;16.720;2022-09-28T09:46:36;98197.50;;;14.60;85.06
41515;BME280;27247;48.020;16.720;2022-09-28T09:51:07;98204.22;;;14.75;84.55
41515;BME280;27247;48.020;16.720;2022-09-28T09:55:28;98198.69;;;14.81;82.88
41515;BME280;27247;48.020;16.720;2022-09-28T09:59:42;98208.47;;;14.87;81.33
41515;BME280;27247;48.020;16.720;2022-09-28T10:03:54;98209.09;;;14.78;80.83
41515;BME280;27247;48.020;16.720;2022-09-28T10:08:10;98192.00;;;15.00;81.49
41515;BME280;27247;48.020;16.720;2022-09-28T10:12:24;98185.81;;;15.17;81.79
41515;BME280;27247;48.020;16.720;2022-09-28T10:16:35;98173.19;;;15.00;80.25
41515;BME280;27247;48.020;16.720;2022-09-28T10:20:45;98163.47;;;14.99;79.00
41515;BME280;27247;48.020;16.720;2022-09-28T10:24:57;98183.84;;;15.12;79.39
41515;BME280;27247;48.020;16.720;2022-09-28T10:29:19;98164.91;;;15.41;79.53
41515;BME280;27247;48.020;16.720;2022-09-28T10:33:32;98158.78;;;15.45;80.87
41515;BME280;27247;48.020;16.720;2022-09-28T10:42:11;98168.63;;;15.56;78.56
41515;BME280;27247;48.020;16.720;2022-09-28T10:46:22;98172.19;;;15.79;80.51
41515;BME280;27247;48.020;16.720;2022-09-28T10:50:33;98157.84;;;15.73;78.56
41515;BME280;27247;48.020;16.720;2022-09-28T10:54:51;98162.59;;;15.66;79.95
41515;BME280;27247;48.020;16.720;2022-09-28T11:03:48;98138.72;;;15.36;80.12
41515;BME280;27247;48.020;16.720;2022-09-28T11:08:03;98153.59;;;15.05;81.66
41515;BME280;27247;48.020;16.720;2022-09-28T11:12:21;98143.91;;;14.87;81.50
41515;BME280;27247;48.020;16.720;2022-09-28T11:16:34;98132.19;;;14.77;82.92
41515;BME280;27247;48.020;16.720;2022-09-28T11:20:45;98163.88;;;14.75;84.09
41515;BME280;27247;48.020;16.720;2022-09-28T11:33:41;98146.59;;;14.71;83.03
41515;BME280;27247;48.020;16.720;2022-09-28T11:38:08;98133.59;;;14.51;83.23
41515;BME280;27247;48.020;16.720;2022-09-28T11:42:57;98129.19;;;14.45;83.68
41515;BME280;27247;48.020;16.720;2022-09-28T11:47:46;98114.31;;;14.54;84.51
41515;BME280;27247;48.020;16.720;2022-09-28T11:52:06;98112.34;;;14.49;84.08
41515;BME280;27247;48.020;16.720;2022-09-28T12:00:42;98097.16;;;14.72;84.53
41515;BME280;27247;48.020;16.720;2022-09-28T12:05:21;98105.84;;;14.95;83.91
41515;BME280;27247;48.020;16.720;2022-09-28T12:09:37;98098.31;;;15.14;83.45
41515;BME280;27247;48.020;16.720;2022-09-28T12:13:52;98086.91;;;15.46;82.57
41515;BME280;27247;48.020;16.720;2022-09-28T12:18:06;98115.69;;;15.45;82.68
41515;BME280;27247;48.020;16.720;2022-09-28T12:22:30;98125.97;;;15.48;82.52
41515;BME280;27247;48.020;16.720;2022-09-28T12:26:50;98105.00;;;15.50;82.10
41515;BME280;27247;48.020;16.720;2022-09-28T12:31:10;98118.72;;;15.66;81.98
41515;BME280;27247;48.020;16.720;2022-09-28T12:49:03;98131.13;;;16.42;79.88
41515;BME280;27247;48.020;16.720;2022-09-28T12:57:58;98129.00;;;16.17;76.81
41515;BME280;27247;48.020;16.720;2022-09-28T13:16:01;98113.88;;;16.65;75.72
41515;BME280;27247;48.020;16.720;2022-09-28T13:24:41;98121.97;;;16.43;77.21
41515;BME280;27247;48.020;16.720;2022-09-28T13:28:58;98123.59;;;16.44;78.30
41515;BME280;27247;48.020;16.720;2022-09-28T13:33:18;98117.66;;;16.42;78.61
41515;BME280;27247;48.020;16.720;2022-09-28T13:37:29;98117.69;;;16.47;76.76
41515;BME280;27247;48.020;16.720;2022-09-28T13:41:46;98114.03;;;16.58;77.57
41515;BME280;27247;48.020;16.720;2022-09-28T13:46:09;98114.16;;;16.69;77.35
41515;BME280;27247;48.020;16.720;2022-09-28T13:55:22;98125.34;;;16.82;76.62
41515;BME280;27247;48.020;16.720;2022-09-28T13:59:50;98130.59;;;16.99;75.85
41515;BME280;27247;48.020;16.720;2022-09-28T14:13:01;98136.97;;;16.61;78.04
41515;BME280;27247;48.020;16.720;2022-09-28T14:30:24;98152.00;;;16.25;79.11
41515;BME280;27247;48.020;16.720;2022-09-28T14:34:41;98152.19;;;16.18;78.80
41515;BME280;27247;48.020;16.720;2022-09-28T14:38:52;98144.72;;;16.25;79.79
41515;BME280;27247;48.020;16.720;2022-09-28T14:48:11;98150.59;;;15.95;78.44
41515;BME280;27247;48.020;16.720;2022-09-28T14:52:37;98154.53;;;15.88;78.06
41515;BME280;27247;48.020;16.720;2022-09-28T15:01:06;98153.88;;;15.59;78.87
41515;BME280;27247;48.020;16.720;2022-09-28T15:05:41;98153.28;;;15.57;79.29
41515;BME280;27247;48.020;16.720;2022-09-28T15:09:55;98163.97;;;15.52;80.29
41515;BME280;27247;48.020;16.720;2022-09-28T15:14:06;98162.09;;;15.52;80.30
41515;BME280;27247;48.020;16.720;2022-09-28T15:22:27;98170.03;;;15.59;80.53
41515;BME280;27247;48.020;16.720;2022-09-28T15:26:39;98173.69;;;15.53;81.32
41515;BME280;27247;48.020;16.720;2022-09-28T15:30:50;98186.06;;;15.54;81.45
41515;BME280;27247;48.020;16.720;2022-09-28T15:35:18;98186.81;;;15.49;82.29
41515;BME280;27247;48.020;16.720;2022-09-28T15:39:30;98187.00;;;15.43;82.40
41515;BME280;27247;48.020;16.720;2022-09-28T15:43:43;98197.50;;;15.44;83.06
41515;BME280;27247;48.020;16.720;2022-09-28T15:48:19;98186.81;;;15.49;82.41
41515;BME280;27247;48.020;16.720;2022-09-28T15:52:55;98191.16;;;15.33;83.88
41515;BME280;27247;48.020;16.720;2022-09-28T15:57:33;98192.88;;;15.40;83.04
41515;BME280;27247;48.020;16.720;2022-09-28T16:01:46;98196.22;;;15.47;83.11
41515;BME280;27247;48.020;16.720;2022-09-28T16:10:28;98191.75;;;15.36;84.15
41515;BME280;27247;48.020;16.720;2022-09-28T16:14:47;98203.56;;;15.34;84.46
41515;BME280;27247;48.020;16.720;2022-09-28T16:18:59;98212.47;;;15.35;84.99
41515;BME280;27247;48.020;16.720;2022-09-28T16:23:29;98215.56;;;15.27;85.73
41515;BME280;27247;48.020;16.720;2022-09-28T16:27:41;98211.31;;;15.14;86.75
41515;BME280;27247;48.020;16.720;2022-09-28T16:31:52;98210.34;;;15.04;87.38
41515;BME280;27247;48.020;16.720;2022-09-28T16:36:03;98207.34;;;15.00;88.00
41515;BME280;27247;48.020;16.720;2022-09-28T16:40:14;98212.31;;;14.91;88.37
41515;BME280;27247;48.020;16.720;2022-09-28T16:44:25;98222.31;;;14.79;89.30
41515;BME280;27247;48.020;16.720;2022-09-28T16:48:41;98222.94;;;14.69;90.67
41515;BME280;27247;48.020;16.720;2022-09-28T16:53:00;98223.03;;;14.75;90.66
41515;BME280;27247;48.020;16.720;2022-09-28T16:57:31;98228.66;;;14.73;91.00
41515;BME280;27247;48.020;16.720;2022-09-28T17:01:43;98227.66;;;14.62;91.73
41515;BME280;27247;48.020;16.720;2022-09-28T17:05:54;98233.28;;;14.49;91.84
41515;BME280;27247;48.020;16.720;2022-09-28T17:10:33;98232.00;;;14.52;91.89
41515;BME280;27247;48.020;16.720;2022-09-28T17:14:44;98227.13;;;14.77;91.26
41515;BME280;27247;48.020;16.720;2022-09-28T17:18:55;98220.91;;;14.77;90.59
41515;BME280;27247;48.020;16.720;2022-09-28T17:23:06;98231.16;;;14.63;91.07
41515;BME280;27247;48.020;16.720;2022-09-28T17:27:17;98229.56;;;14.50;92.23
41515;BME280;27247;48.020;16.720;2022-09-28T17:31:28;98228.50;;;14.51;91.91
41515;BME280;27247;48.020;16.720;2022-09-28T17:35:40;98237.50;;;14.57;92.12
41515;BME280;27247;48.020;16.720;2022-09-28T17:39:50;98229.22;;;14.47;92.26
41515;BME280;27247;48.020;16.720;2022-09-28T17:44:01;98231.81;;;14.30;93.12
41515;BME280;27247;48.020;16.720;2022-09-28T17:48:13;98242.22;;;14.26;95.12
41515;BME280;27247;48.020;16.720;2022-09-28T17:52:24;98252.38;;;13.84;97.46
41515;BME280;27247;48.020;16.720;2022-09-28T17:56:35;98249.22;;;13.76;97.94
41515;BME280;27247;48.020;16.720;2022-09-28T18:00:47;98259.16;;;13.75;97.83
41515;BME280;27247;48.020;16.720;2022-09-28T18:04:58;98252.16;;;13.74;98.70
41515;BME280;27247;48.020;16.720;2022-09-28T18:09:11;98258.09;;;13.64;98.31
41515;BME280;27247;48.020;16.720;2022-09-28T18:13:23;98270.72;;;13.64;98.12
41515;BME280;27247;48.020;16.720;2022-09-28T18:17:34;98267.56;;;13.67;97.37
41515;BME280;27247;48.020;16.720;2022-09-28T18:21:44;98273.28;;;13.59;97.12
41515;BME280;27247;48.020;16.720;2022-09-28T18:25:55;98278.47;;;13.30;98.03
41515;BME280;27247;48.020;16.720;2022-09-28T18:30:06;98284.06;;;13.29;98.55
41515;BME280;27247;48.020;16.720;2022-09-28T18:34:16;98287.47;;;13.36;97.94
41515;BME280;27247;48.020;16.720;2022-09-28T18:38:26;98287.22;;;13.26;97.18
41515;BME280;27247;48.020;16.720;2022-09-28T18:42:37;98291.44;;;13.33;96.96
41515;BME280;27247;48.020;16.720;2022-09-28T18:46:48;98289.91;;;13.37;95.33
41515;BME280;27247;48.020;16.720;2022-09-28T18:51:01;98294.59;;;13.42;95.00
41515;BME280;27247;48.020;16.720;2022-09-28T18:55:11;98300.06;;;13.47;94.97
41515;BME280;27247;48.020;16.720;2022-09-28T18:59:22;98303.00;;;13.46;95.47
41515;BME280;27247;48.020;16.720;2022-09-28T19:03:33;98307.59;;;13.57;92.30
41515;BME280;27247;48.020;16.720;2022-09-28T19:07:43;98303.84;;;13.58;90.95
41515;BME280;27247;48.020;16.720;2022-09-28T19:11:53;98313.84;;;13.51;88.16
41515;BME280;27247;48.020;16.720;2022-09-28T19:16:11;98303.25;;;13.56;88.45
41515;BME280;27247;48.020;16.720;2022-09-28T19:20:23;98303.50;;;13.54;88.19
41515;BME280;27247;48.020;16.720;2022-09-28T19:24:34;98301.88;;;13.53;87.53
41515;BME280;27247;48.020;16.720;2022-09-28T19:28:44;98315.75;;;13.62;86.89
41515;BME280;27247;48.020;16.720;2022-09-28T19:32:55;98313.31;;;13.60;85.96
41515;BME280;27247;48.020;16.720;2022-09-28T19:37:05;98310.97;;;13.64;85.72
41515;BME280;27247;48.020;16.720;2022-09-28T19:41:17;98323.94;;;13.67;85.85
41515;BME280;27247;48.020;16.720;2022-09-28T19:45:47;98330.47;;;13.59;86.55
41515;BME280;27247;48.020;16.720;2022-09-28T19:50:01;98320.06;;;13.63;85.60
41515;BME280;27247;48.020;16.720;2022-09-28T19:54:12;98328.00;;;13.58;85.47
41515;BME280;27247;48.020;16.720;2022-09-28T19:58:26;98324.41;;;13.64;85.25
41515;BME280;27247;48.020;16.720;2022-09-28T20:02:37;98314.34;;;13.71;84.37
41515;BME280;27247;48.020;16.720;2022-09-28T20:06:47;98325.22;;;13.64;84.39
41515;BME280;27247;48.020;16.720;2022-09-28T20:10:59;98323.13;;;13.66;83.93
41515;BME280;27247;48.020;16.720;2022-09-28T20:15:09;98333.72;;;13.73;82.32
41515;BME280;27247;48.020;16.720;2022-09-28T20:19:20;98344.25;;;13.74;81.93
41515;BME280;27247;48.020;16.720;2022-09-28T20:23:32;98326.97;;;13.82;80.71
41515;BME280;27247;48.020;16.720;2022-09-28T20:27:45;98339.81;;;13.80;81.35
41515;BME280;27247;48.020;16.720;2022-09-28T20:31:55;98358.25;;;13.77;82.26
41515;BME280;27247;48.020;16.720;2022-09-28T20:36:13;98355.09;;;13.68;83.19
41515;BME280;27247;48.020;16.720;2022-09-28T20:40:24;98361.88;;;13.70;83.37
41515;BME280;27247;48.020;16.720;2022-09-28T20:44:38;98361.84;;;13.59;83.40
41515;BME280;27247;48.020;16.720;2022-09-28T20:48:49;98361.03;;;13.58;84.06
41515;BME280;27247;48.020;16.720;2022-09-28T20:53:00;98374.75;;;13.50;85.13
41515;BME280;27247;48.020;16.720;2022-09-28T20:57:10;98370.09;;;13.46;85.71
41515;BME280;27247;48.020;16.720;2022-09-28T21:01:28;98379.50;;;13.36;86.29
41515;BME280;27247;48.020;16.720;2022-09-28T21:05:39;98388.25;;;13.32;87.00
41515;BME280;27247;48.020;16.720;2022-09-28T21:09:49;98393.72;;;13.25;87.61
41515;BME280;27247;48.020;16.720;2022-09-28T21:14:02;98391.53;;;13.16;87.14
41515;BME280;27247;48.020;16.720;2022-09-28T21:18:12;98392.59;;;13.15;86.87
41515;BME280;27247;48.020;16.720;2022-09-28T21:22:23;98390.94;;;13.14;86.74
41515;BME280;27247;48.020;16.720;2022-09-28T21:26:33;98399.44;;;13.10;86.47
41515;BME280;27247;48.020;16.720;2022-09-28T21:30:44;98394.63;;;13.01;86.15
41515;BME280;27247;48.020;16.720;2022-09-28T21:34:54;98394.41;;;13.02;86.33
41515;BME280;27247;48.020;16.720;2022-09-28T21:39:05;98402.31;;;12.97;86.38
41515;BME280;27247;48.020;16.720;2022-09-28T21:43:15;98396.13;;;12.97;86.23
41515;BME280;27247;48.020;16.720;2022-09-28T21:47:26;98396.22;;;12.90;85.72
41515;BME280;27247;48.020;16.720;2022-09-28T21:51:36;98396.84;;;13.04;85.23
41515;BME280;27247;48.020;16.720;2022-09-28T21:55:51;98394.50;;;12.96;85.55
41515;BME280;27247;48.020;16.720;2022-09-28T22:00:02;98400.91;;;12.95;85.83
41515;BME280;27247;48.020;16.720;2022-09-28T22:04:13;98405.22;;;12.96;86.01
41515;BME280;27247;48.020;16.720;2022-09-28T22:08:24;98410.34;;;12.97;86.41
41515;BME280;27247;48.020;16.720;2022-09-28T22:12:34;98394.94;;;12.93;86.48
41515;BME280;27247;48.020;16.720;2022-09-28T22:16:44;98399.72;;;12.91;86.94
41515;BME280;27247;48.020;16.720;2022-09-28T22:25:12;98417.75;;;12.84;85.69
41515;BME280;27247;48.020;16.720;2022-09-28T22:29:22;98420.78;;;12.87;86.33
41515;BME280;27247;48.020;16.720;2022-09-28T22:33:33;98420.84;;;12.99;85.39
41515;BME280;27247;48.020;16.720;2022-09-28T22:37:43;98424.56;;;12.98;85.01
41515;BME280;27247;48.020;16.720;2022-09-28T22:41:54;98422.81;;;12.92;84.80
41515;BME280;27247;48.020;16.720;2022-09-28T22:46:06;98430.41;;;12.76;84.39
41515;BME280;27247;48.020;16.720;2022-09-28T22:50:17;98434.19;;;12.87;85.58
41515;BME280;27247;48.020;16.720;2022-09-28T22:54:27;98445.59;;;12.83;87.11
41515;BME280;27247;48.020;16.720;2022-09-28T22:58:38;98446.72;;;12.75;88.67
41515;BME280;27247;48.020;16.720;2022-09-28T23:02:48;98463.53;;;12.64;89.67
41515;BME280;27247;48.020;16.720;2022-09-28T23:06:58;98470.59;;;12.58;90.28
41515;BME280;27247;48.020;16.720;2022-09-28T23:11:09;98464.53;;;12.44;90.62
41515;BME280;27247;48.020;16.720;2022-09-28T23:15:20;98463.94;;;12.42;91.69
41515;BME280;27247;48.020;16.720;2022-09-28T23:19:31;98464.00;;;12.36;92.33
41515;BME280;27247;48.020;16.720;2022-09-28T23:23:43;98476.41;;;12.30;92.40
41515;BME280;27247;48.020;16.720;2022-09-28T23:27:54;98472.53;;;12.26;91.79
41515;BME280;27247;48.020;16.720;2022-09-28T23:32:04;98472.38;;;12.21;91.70
41515;BME280;27247;48.020;16.720;2022-09-28T23:36:15;98479.88;;;12.12;92.41
41515;BME280;27247;48.020;16.720;2022-09-28T23:40:26;98479.31;;;12.04;93.29
41515;BME280;27247;48.020;16.720;2022-09-28T23:44:36;98468.41;;;12.05;92.94
41515;BME280;27247;48.020;16.720;2022-09-28T23:48:47;98473.97;;;12.04;92.35
41515;BME280;27247;48.020;16.720;2022-09-28T23:52:58;98481.72;;;11.87;92.07
41515;BME280;27247;48.020;16.720;2022-09-28T23:57:08;98492.44;;;11.87;91.62
